Time;durP1;ratioP1;P1;durP2;ratioP2;P2;SDS_P1;SDS_P2;PMS_P1;PMS_P2;Temp;Humidity;BMP_temperature;BMP_pressure;BME280_temperature;BME280_humidity;BME280_pressure;Samples;Min_cycle;Max_cycle;Signal;HPM_P1;HPM_P2
2024/01/09 00:00:42;;;;;;;7.38;2.95;;;-1.90;99.90;;;;;;4992086;28;20042;-87
2024/01/09 00:03:08;;;;;;;6.38;2.50;;;-2.20;99.90;;;;;;5010679;28;20038;-88
2024/01/09 00:05:34;;;;;;;8.90;3.13;;;-2.30;99.90;;;;;;4994547;28;20077;-86
2024/01/09 00:07:59;;;;;;;7.63;2.78;;;-1.90;99.90;;;;;;5005882;28;20034;-87
2024/01/09 00:10:25;;;;;;;8.65;3.00;;;-2.30;99.90;;;;;;5029525;28;20112;-87
2024/01/09 00:12:51;;;;;;;9.82;2.95;;;-2.40;99.90;;;;;;5004042;28;20038;-87
2024/01/09 00:15:17;;;;;;;8.30;2.78;;;-0.90;99.90;;;;;;4975569;28;20046;-87
2024/01/09 00:17:42;;;;;;;8.80;2.88;;;-1.50;99.90;;;;;;4999079;28;20308;-87
2024/01/09 00:20:09;;;;;;;7.88;2.92;;;-2.40;99.90;;;;;;4991095;28;20065;-87
2024/01/09 00:22:35;;;;;;;7.72;3.05;;;-2.40;99.90;;;;;;5022349;28;20065;-88
2024/01/09 00:25:00;;;;;;;9.07;2.70;;;-2.30;99.90;;;;;;5009902;28;20483;-87
2024/01/09 00:27:26;;;;;;;8.43;3.00;;;-2.40;99.90;;;;;;4993592;28;20034;-86
2024/01/09 00:29:52;;;;;;;7.05;2.70;;;-2.40;99.90;;;;;;4995163;28;20585;-86
2024/01/09 00:32:18;;;;;;;8.05;3.30;;;-2.40;99.90;;;;;;5013113;28;20077;-87
2024/01/09 00:34:43;;;;;;;6.80;2.60;;;-1.90;99.90;;;;;;4996038;28;20046;-86
2024/01/09 00:37:09;;;;;;;8.07;3.17;;;-2.50;99.90;;;;;;5012962;28;20045;-87
2024/01/09 00:39:35;;;;;;;9.13;2.95;;;-2.50;99.90;;;;;;5006712;28;20120;-86
2024/01/09 00:42:00;;;;;;;9.05;2.90;;;-2.50;99.90;;;;;;5011464;28;20137;-87
2024/01/09 00:44:26;;;;;;;7.50;2.58;;;-2.50;99.90;;;;;;5023527;28;20044;-86
2024/01/09 00:46:52;;;;;;;8.00;3.00;;;-2.50;99.90;;;;;;4990347;28;20072;-86
2024/01/09 00:49:17;;;;;;;7.25;2.88;;;-2.50;99.90;;;;;;5009410;28;20558;-87
2024/01/09 00:51:43;;;;;;;7.65;2.97;;;-2.50;99.90;;;;;;5029907;28;20038;-87
2024/01/09 00:54:09;;;;;;;8.25;3.13;;;-2.30;99.90;;;;;;5012730;28;20227;-87
2024/01/09 00:56:34;;;;;;;7.68;3.15;;;-2.40;99.90;;;;;;4994499;28;20037;-88
2024/01/09 00:59:00;;;;;;;8.60;3.30;;;-2.60;99.90;;;;;;4984606;28;20497;-88
2024/01/09 01:01:26;;;;;;;8.75;2.75;;;-2.40;99.90;;;;;;4996344;28;20044;-87
2024/01/09 01:03:51;;;;;;;8.45;3.03;;;-2.50;99.90;;;;;;5028296;28;20038;-87
2024/01/09 01:06:17;;;;;;;8.38;3.00;;;-1.00;99.90;;;;;;4990484;28;20160;-86
2024/01/09 01:08:42;;;;;;;8.88;2.97;;;-2.60;99.90;;;;;;5011919;28;20053;-86
2024/01/09 01:11:08;;;;;;;8.10;2.90;;;-2.30;99.90;;;;;;4996377;28;20505;-86
2024/01/09 01:13:34;;;;;;;8.70;2.63;;;;;;;;;;5011426;28;20550;-87
2024/01/09 01:16:00;;;;;;;7.70;3.05;;;-2.10;99.90;;;;;;5027772;28;20156;-88
2024/01/09 01:18:26;;;;;;;7.50;2.80;;;-2.70;99.90;;;;;;4991296;28;20124;-87
2024/01/09 01:20:51;;;;;;;7.28;2.97;;;-2.50;99.90;;;;;;5014396;28;20411;-87
2024/01/09 01:23:17;;;;;;;8.50;2.90;;;-2.80;99.90;;;;;;5029065;28;20053;-86
2024/01/09 01:25:43;;;;;;;8.10;2.70;;;-2.70;99.90;;;;;;4995948;28;20045;-87
2024/01/09 01:28:08;;;;;;;8.05;2.60;;;-2.70;99.90;;;;;;4972663;28;20037;-87
2024/01/09 01:30:34;;;;;;;6.15;2.50;;;-2.70;99.90;;;;;;4996115;28;20046;-87
2024/01/09 01:33:00;;;;;;;8.15;2.83;;;-1.90;99.90;;;;;;5006913;28;20048;-86
2024/01/09 01:35:25;;;;;;;6.80;2.78;;;-2.60;99.90;;;;;;4989329;28;20038;-87
2024/01/09 01:37:51;;;;;;;10.85;3.17;;;-2.00;99.90;;;;;;4977246;28;20046;-87
2024/01/09 01:40:17;;;;;;;6.80;2.58;;;-2.80;99.90;;;;;;5028582;28;20502;-87
2024/01/09 01:42:43;;;;;;;7.72;2.78;;;-2.50;99.90;;;;;;5027514;28;20045;-87
2024/01/09 01:45:21;;;;;;;7.47;3.00;;;-2.80;99.90;;;;;;5028461;28;20289;-86
2024/01/09 01:47:47;;;;;;;7.13;2.90;;;-2.80;99.90;;;;;;5024705;28;20045;-87
2024/01/09 01:50:14;;;;;;;8.02;3.10;;;-2.80;99.90;;;;;;5012761;28;20285;-86
2024/01/09 01:52:41;;;;;;;8.07;2.65;;;-1.70;99.90;;;;;;5007173;28;20121;-87
2024/01/09 01:55:10;;;;;;;10.00;2.90;;;-2.90;99.90;;;;;;5011902;28;20052;-87
2024/01/09 01:57:38;;;;;;;8.43;3.00;;;-2.50;99.90;;;;;;5028420;28;20041;-85
2024/01/09 02:00:04;;;;;;;8.48;3.08;;;-2.90;99.90;;;;;;5010960;28;20048;-87
2024/01/09 02:02:31;;;;;;;8.60;2.85;;;-2.90;99.90;;;;;;5018027;28;20046;-87
2024/01/09 02:04:57;;;;;;;7.30;2.90;;;-2.90;99.90;;;;;;5026600;28;20507;-86
2024/01/09 02:07:26;;;;;;;8.00;2.85;;;-2.40;99.90;;;;;;4995358;28;20040;-87
2024/01/09 02:09:53;;;;;;;7.10;2.83;;;-2.80;99.90;;;;;;5005534;28;20545;-87
2024/01/09 02:12:19;;;;;;;7.30;2.70;;;-2.00;99.90;;;;;;5026287;28;20103;-86
2024/01/09 02:14:46;;;;;;;7.45;2.97;;;-1.90;99.90;;;;;;4989278;28;20041;-87
2024/01/09 02:17:13;;;;;;;8.18;3.20;;;-1.80;99.90;;;;;;5024255;28;20483;-86
2024/01/09 02:19:39;;;;;;;8.20;3.35;;;-3.00;99.90;;;;;;5019397;28;20095;-86
2024/01/09 02:22:04;;;;;;;8.23;2.85;;;-2.40;99.90;;;;;;5028295;28;20045;-86
2024/01/09 02:24:30;;;;;;;7.28;2.88;;;-3.00;99.90;;;;;;5010833;28;20039;-87
2024/01/09 02:27:15;;;;;;;8.20;2.90;;;-1.80;99.90;;;;;;5005231;28;20315;-87
2024/01/09 02:29:49;;;;;;;7.75;2.92;;;-3.10;99.90;;;;;;5018553;28;20033;-87
2024/01/09 02:32:16;;;;;;;7.45;2.88;;;-2.70;99.90;;;;;;5009736;28;20523;-86
2024/01/09 02:34:44;;;;;;;7.93;2.83;;;-2.50;99.90;;;;;;5010009;28;20054;-88
2024/01/09 02:37:10;;;;;;;7.55;2.80;;;-2.40;99.90;;;;;;5008155;28;20120;-86
2024/01/09 02:39:36;;;;;;;9.02;3.20;;;-3.40;99.90;;;;;;5022650;28;20056;-87
2024/01/09 02:42:02;;;;;;;7.00;2.63;;;-3.20;99.90;;;;;;5008638;28;20491;-87
2024/01/09 02:44:28;;;;;;;6.45;2.60;;;-3.20;99.90;;;;;;5002775;28;20498;-86
2024/01/09 02:46:54;;;;;;;7.30;2.70;;;-2.70;99.90;;;;;;4992611;28;20038;-87
2024/01/09 02:49:19;;;;;;;7.38;3.17;;;-3.20;99.90;;;;;;4986785;28;20034;-87
2024/01/09 02:51:45;;;;;;;8.23;2.80;;;-3.20;99.90;;;;;;5022988;28;20033;-85
2024/01/09 02:54:11;;;;;;;7.72;2.90;;;-3.30;99.90;;;;;;5010210;28;20060;-87
2024/01/09 02:56:37;;;;;;;8.90;3.17;;;-3.30;99.90;;;;;;4989175;28;20053;-87
2024/01/09 02:59:03;;;;;;;6.80;2.70;;;-3.30;99.90;;;;;;4978134;28;20046;-87
2024/01/09 03:01:29;;;;;;;7.88;2.80;;;-3.30;99.90;;;;;;5007347;28;20057;-87
2024/01/09 03:03:54;;;;;;;7.55;3.10;;;-2.30;99.90;;;;;;4991319;28;20038;-86
2024/01/09 03:06:20;;;;;;;8.23;2.70;;;-3.50;99.90;;;;;;4988288;28;20038;-88
2024/01/09 03:08:48;;;;;;;8.70;3.10;;;-3.40;99.90;;;;;;5011063;28;20030;-86
2024/01/09 03:11:14;;;;;;;7.38;2.80;;;-3.30;99.90;;;;;;5013591;28;20033;-88
2024/01/09 03:13:40;;;;;;;7.30;2.90;;;-3.40;99.90;;;;;;5009565;28;20037;-87
2024/01/09 03:16:13;;;;;;;8.13;3.40;;;-2.90;99.90;;;;;;5027776;28;20061;-87
2024/01/09 03:18:42;;;;;;;7.53;2.90;;;-2.90;99.90;;;;;;4998095;28;20079;-86
2024/01/09 03:21:10;;;;;;;7.70;2.85;;;-2.70;99.90;;;;;;5031550;28;20037;-87
2024/01/09 03:23:36;;;;;;;7.80;3.00;;;-3.40;99.90;;;;;;5003989;28;20052;-87
2024/01/09 03:26:03;;;;;;;9.18;3.10;;;-3.70;99.90;;;;;;5010914;28;20037;-87
2024/01/09 03:28:28;;;;;;;9.27;3.20;;;-3.40;99.90;;;;;;5007200;28;20037;-87
2024/01/09 03:30:54;;;;;;;8.23;3.08;;;-3.00;99.90;;;;;;5031117;28;20060;-87
2024/01/09 03:33:20;;;;;;;8.30;3.00;;;-3.50;99.90;;;;;;5011951;28;20295;-87
2024/01/09 03:35:46;;;;;;;8.90;2.67;;;-3.90;99.90;;;;;;5030786;28;20041;-87
2024/01/09 03:38:12;;;;;;;7.55;3.20;;;-1.80;99.90;;;;;;5012767;28;20072;-87
2024/01/09 03:40:38;;;;;;;8.75;2.97;;;-3.00;99.90;;;;;;5008632;28;20045;-86
2024/01/09 03:43:06;;;;;;;7.93;3.10;;;-3.60;99.90;;;;;;5007487;28;20038;-87
2024/01/09 03:45:32;;;;;;;7.60;2.92;;;-3.50;99.90;;;;;;5009857;28;20051;-87
2024/01/09 03:47:58;;;;;;;8.25;3.10;;;-3.50;99.90;;;;;;5028974;28;20532;-88
2024/01/09 03:50:23;;;;;;;7.70;3.00;;;-3.60;99.90;;;;;;4981213;28;20033;-86
2024/01/09 03:52:49;;;;;;;7.70;3.00;;;-3.60;99.90;;;;;;5029268;28;20036;-87
2024/01/09 03:55:16;;;;;;;7.47;3.25;;;-3.60;99.90;;;;;;5009615;28;20387;-87
2024/01/09 03:57:44;;;;;;;7.13;2.75;;;-3.30;99.90;;;;;;5012860;28;20195;-88
2024/01/09 04:00:11;;;;;;;9.07;3.30;;;-0.90;99.90;;;;;;5029782;28;20121;-86
2024/01/09 04:02:37;;;;;;;8.90;3.20;;;-3.60;99.90;;;;;;5028967;28;20045;-87
2024/01/09 04:05:04;;;;;;;8.55;3.10;;;-3.10;99.90;;;;;;5011928;28;20043;-87
2024/01/09 04:07:30;;;;;;;6.88;2.97;;;-3.60;99.90;;;;;;5029236;28;20065;-87
2024/01/09 04:09:56;;;;;;;7.10;2.90;;;-3.60;99.90;;;;;;5011143;28;20080;-87
2024/01/09 04:12:21;;;;;;;8.05;2.92;;;-3.70;99.90;;;;;;4993527;28;20042;-87
2024/01/09 04:14:47;;;;;;;8.73;3.17;;;-3.70;99.90;;;;;;4995131;28;20478;-88
2024/01/09 04:17:13;;;;;;;8.30;2.92;;;-3.70;99.90;;;;;;5011037;28;20037;-88
2024/01/09 04:19:39;;;;;;;7.95;3.08;;;-2.90;99.90;;;;;;5010839;28;20045;-88
2024/01/09 04:22:06;;;;;;;8.77;3.17;;;-3.70;99.90;;;;;;5004100;28;20288;-86
2024/01/09 04:24:33;;;;;;;8.75;3.08;;;-3.20;99.90;;;;;;4991589;28;20121;-88
2024/01/09 04:26:59;;;;;;;7.78;3.17;;;-3.20;99.90;;;;;;5026573;28;20037;-88
2024/01/09 04:29:25;;;;;;;7.50;3.20;;;-3.80;99.90;;;;;;5028280;28;20033;-88
2024/01/09 04:31:51;;;;;;;7.47;3.03;;;-3.80;99.90;;;;;;5010986;28;20053;-88
2024/01/09 04:34:17;;;;;;;6.88;2.70;;;-3.60;99.90;;;;;;5029606;28;20059;-88
2024/01/09 04:36:43;;;;;;;8.05;3.10;;;-3.00;99.90;;;;;;4995204;28;20052;-88
2024/01/09 04:39:08;;;;;;;7.60;2.88;;;-3.80;99.90;;;;;;4995016;28;20079;-88
2024/01/09 04:41:34;;;;;;;7.20;3.10;;;-3.70;99.90;;;;;;5011344;28;20038;-87
2024/01/09 04:44:00;;;;;;;9.05;3.20;;;-3.70;99.90;;;;;;4987099;28;20046;-87
2024/01/09 04:46:26;;;;;;;8.13;3.10;;;-3.80;99.90;;;;;;5013097;28;20042;-88
2024/01/09 04:48:52;;;;;;;7.45;3.00;;;-3.10;99.90;;;;;;5026203;28;20038;-87
2024/01/09 04:51:17;;;;;;;8.68;3.40;;;-3.10;99.90;;;;;;4993601;28;20049;-88
2024/01/09 04:53:43;;;;;;;8.00;3.20;;;-3.80;99.90;;;;;;5028070;28;20041;-88
2024/01/09 04:56:09;;;;;;;8.63;3.30;;;-3.80;99.90;;;;;;5011909;28;20037;-88
2024/01/09 04:58:35;;;;;;;8.50;2.97;;;-3.80;99.90;;;;;;5026927;28;20070;-88
2024/01/09 05:01:01;;;;;;;8.95;3.00;;;-3.80;99.90;;;;;;5012048;28;20037;-87
2024/01/09 05:03:26;;;;;;;7.50;3.00;;;-3.90;99.90;;;;;;5011442;28;20064;-88
2024/01/09 05:05:52;;;;;;;8.05;3.05;;;-3.20;99.90;;;;;;4992985;28;20420;-88
2024/01/09 05:08:18;;;;;;;6.53;2.60;;;-1.70;99.90;;;;;;5012688;28;20470;-88
2024/01/09 05:10:44;;;;;;;7.07;2.90;;;-3.90;99.90;;;;;;5012229;28;20117;-88
2024/01/09 05:13:10;;;;;;;7.25;2.92;;;-3.20;99.90;;;;;;5028957;28;20125;-88
2024/01/09 05:15:36;;;;;;;7.85;2.90;;;;;;;;;;5027384;28;20163;-87
2024/01/09 05:18:02;;;;;;;9.13;3.33;;;-3.90;99.90;;;;;;5037273;28;20128;-88
2024/01/09 05:20:28;;;;;;;9.70;3.00;;;-4.00;99.90;;;;;;5025300;28;20041;-88
2024/01/09 05:22:55;;;;;;;7.70;3.00;;;-3.20;99.90;;;;;;5011259;28;20041;-88
2024/01/09 05:25:20;;;;;;;6.80;2.80;;;-3.70;99.90;;;;;;5012289;28;20043;-87
2024/01/09 05:27:46;;;;;;;8.57;3.20;;;-4.10;99.90;;;;;;5005554;28;20041;-88
2024/01/09 05:30:12;;;;;;;8.05;3.58;;;-4.00;99.90;;;;;;4995274;28;20052;-88
2024/01/09 05:32:38;;;;;;;9.18;3.10;;;-4.00;99.90;;;;;;5001091;28;20061;-88
2024/01/09 05:35:05;;;;;;;9.05;2.97;;;-3.90;99.90;;;;;;5011521;28;20160;-88
2024/01/09 05:37:30;;;;;;;9.43;3.13;;;-4.00;99.90;;;;;;5009822;28;20037;-90
2024/01/09 05:39:56;;;;;;;7.50;2.88;;;-3.20;99.90;;;;;;4995945;28;20060;-88
2024/01/09 05:42:22;;;;;;;8.98;3.42;;;-4.10;99.90;;;;;;5009804;28;20044;-89
2024/01/09 05:44:47;;;;;;;9.32;3.15;;;-4.00;99.90;;;;;;5012203;28;20476;-88
2024/01/09 05:47:13;;;;;;;8.13;3.13;;;-4.00;99.90;;;;;;5011182;28;20041;-89
2024/01/09 05:49:39;;;;;;;7.90;3.17;;;-3.60;99.90;;;;;;4992556;28;20033;-89
2024/01/09 05:52:05;;;;;;;8.23;3.03;;;;;;;;;;5000791;28;20493;-89
2024/01/09 05:54:30;;;;;;;7.93;3.03;;;-4.00;99.90;;;;;;5028918;28;20049;-89
2024/01/09 05:56:56;;;;;;;8.85;3.20;;;-3.00;99.90;;;;;;5025902;28;20384;-89
2024/01/09 05:59:22;;;;;;;8.82;3.00;;;;;;;;;;5009682;28;20083;-89
2024/01/09 06:01:48;;;;;;;8.25;3.38;;;-4.10;99.90;;;;;;5007899;28;20095;-89
2024/01/09 06:04:14;;;;;;;6.95;2.88;;;-3.50;99.90;;;;;;5004026;28;20049;-89
2024/01/09 06:06:39;;;;;;;8.73;3.50;;;-3.80;99.90;;;;;;4983291;28;20034;-88
2024/01/09 06:09:05;;;;;;;7.30;3.08;;;-4.10;99.90;;;;;;5009639;28;20095;-89
2024/01/09 06:11:32;;;;;;;7.78;3.20;;;;;;;;;;5009376;28;20116;-89
2024/01/09 06:13:57;;;;;;;7.32;3.05;;;-4.20;99.90;;;;;;5005592;28;20112;-89
2024/01/09 06:16:23;;;;;;;8.02;3.17;;;-3.30;99.90;;;;;;5007730;28;20209;-89
2024/01/09 06:18:49;;;;;;;7.97;3.17;;;-3.50;99.90;;;;;;5006659;28;20048;-88
2024/01/09 06:21:15;;;;;;;7.10;3.00;;;-3.20;99.90;;;;;;5024771;28;20073;-89
2024/01/09 06:23:40;;;;;;;9.05;3.30;;;-4.10;99.90;;;;;;5010146;28;20037;-88
2024/01/09 06:26:06;;;;;;;8.02;3.25;;;-4.20;99.90;;;;;;5010958;28;20045;-89
2024/01/09 06:28:33;;;;;;;7.45;3.10;;;-4.20;99.90;;;;;;5011893;28;20029;-88
2024/01/09 06:30:59;;;;;;;8.13;3.15;;;-4.20;99.90;;;;;;5006853;28;20410;-89
2024/01/09 06:33:26;;;;;;;9.30;3.40;;;-4.20;99.90;;;;;;4990340;28;20026;-90
2024/01/09 06:35:51;;;;;;;8.95;3.42;;;-3.50;99.90;;;;;;5005879;28;20045;-89
2024/01/09 06:38:17;;;;;;;7.30;2.90;;;-4.10;99.90;;;;;;5001417;28;20098;-89
2024/01/09 06:40:44;;;;;;;9.55;3.80;;;-4.00;99.90;;;;;;5020598;28;20045;-90
2024/01/09 06:43:09;;;;;;;7.93;3.08;;;-4.20;99.90;;;;;;5023123;28;20494;-90
2024/01/09 06:45:35;;;;;;;8.13;3.30;;;-4.20;99.90;;;;;;5007702;28;20088;-89
2024/01/09 06:48:04;;;;;;;7.97;3.20;;;-4.30;99.90;;;;;;4993948;28;20060;-90
2024/01/09 06:50:29;;;;;;;8.27;3.20;;;-4.30;99.90;;;;;;5028540;28;20099;-88
2024/01/09 06:52:55;;;;;;;9.23;3.33;;;-2.90;99.90;;;;;;5025310;28;20037;-90
2024/01/09 06:55:21;;;;;;;8.13;3.35;;;-4.30;99.90;;;;;;5010316;28;20402;-90
2024/01/09 06:57:46;;;;;;;8.70;3.40;;;-4.40;99.90;;;;;;4989867;28;20531;-89
2024/01/09 07:00:13;;;;;;;8.63;3.30;;;-4.30;99.90;;;;;;5012017;28;20033;-91
2024/01/09 07:02:39;;;;;;;8.05;3.85;;;-4.40;99.90;;;;;;4992498;28;20048;-90
2024/01/09 07:05:05;;;;;;;8.25;3.38;;;-4.30;99.90;;;;;;5012304;28;20049;-89
2024/01/09 07:07:31;;;;;;;8.82;3.38;;;-4.50;99.90;;;;;;4993101;28;20460;-90
2024/01/09 07:09:56;;;;;;;8.45;3.50;;;-4.30;99.90;;;;;;4991010;28;20065;-88
2024/01/09 07:12:22;;;;;;;8.60;3.28;;;-4.30;99.90;;;;;;4978680;28;20029;-89
2024/01/09 07:14:48;;;;;;;8.35;3.50;;;-4.50;99.90;;;;;;5009510;28;20092;-89
2024/01/09 07:17:15;;;;;;;7.30;3.00;;;-4.40;99.90;;;;;;4992133;28;20056;-87
2024/01/09 07:19:41;;;;;;;7.68;2.70;;;-4.40;99.90;;;;;;4992094;28;20073;-87
2024/01/09 07:22:07;;;;;;;7.63;3.10;;;-4.50;99.90;;;;;;4993717;28;20069;-88
2024/01/09 07:24:33;;;;;;;8.20;3.30;;;-4.40;99.90;;;;;;5027412;28;20421;-88
2024/01/09 07:26:59;;;;;;;8.52;3.40;;;-4.40;99.90;;;;;;5008176;28;20038;-88
2024/01/09 07:29:24;;;;;;;8.73;3.70;;;-4.50;99.90;;;;;;4984646;28;20040;-90
2024/01/09 07:31:50;;;;;;;7.20;2.90;;;-3.20;99.90;;;;;;5007238;28;20049;-89
2024/01/09 07:34:16;;;;;;;9.02;3.63;;;;;;;;;;5010277;28;20044;-90
2024/01/09 07:36:43;;;;;;;8.88;3.67;;;-4.50;99.90;;;;;;5010699;28;20038;-92
2024/01/09 07:39:09;;;;;;;8.88;3.78;;;-4.40;99.90;;;;;;5009803;28;20038;-90
2024/01/09 07:41:36;;;;;;;8.57;3.58;;;-4.50;99.90;;;;;;4992907;28;20034;-90
2024/01/09 07:44:02;;;;;;;8.23;3.63;;;-4.50;99.90;;;;;;4990016;28;20414;-90
2024/01/09 07:46:28;;;;;;;8.88;3.72;;;-4.50;99.90;;;;;;4993832;28;20087;-91
2024/01/09 07:48:54;;;;;;;10.00;3.60;;;-4.60;99.90;;;;;;5026197;28;20042;-91
2024/01/09 07:51:20;;;;;;;9.88;3.67;;;-4.60;99.90;;;;;;4990561;28;20034;-92
2024/01/09 07:53:45;;;;;;;8.63;3.50;;;-2.20;99.90;;;;;;5008060;28;20091;-91
2024/01/09 07:56:18;;;;;;;9.88;3.65;;;-4.50;99.90;;;;;;5007382;28;20045;-88
2024/01/09 07:58:44;;;;;;;10.18;3.72;;;-4.50;99.90;;;;;;5026682;28;20053;-90
2024/01/09 08:01:14;;;;;;;8.00;3.40;;;-4.60;99.90;;;;;;5026068;28;20124;-91
2024/01/09 08:03:40;;;;;;;7.30;3.22;;;-3.30;99.90;;;;;;5007712;28;20121;-92
2024/01/09 08:06:15;;;;;;;8.00;3.60;;;-4.40;99.90;;;;;;4992541;28;20042;-91
2024/01/09 08:08:41;;;;;;;10.88;3.67;;;-4.50;99.90;;;;;;5007676;28;20042;-91
2024/01/09 08:11:07;;;;;;;8.95;3.63;;;-4.50;99.90;;;;;;5010269;28;20510;-93
2024/01/09 08:13:33;;;;;;;8.00;3.58;;;-4.50;99.90;;;;;;5008211;28;20767;-93
2024/01/09 08:15:59;;;;;;;8.32;3.30;;;-4.40;99.90;;;;;;5038351;28;20049;-93
2024/01/09 08:18:25;;;;;;;9.40;3.70;;;-4.50;99.90;;;;;;4994258;28;20573;-92
2024/01/09 08:20:53;;;;;;;9.82;3.67;;;-4.50;99.90;;;;;;4993222;28;20421;-91
2024/01/09 08:23:19;;;;;;;10.13;3.60;;;-4.50;99.90;;;;;;4993126;28;20103;-94
2024/01/09 08:25:45;;;;;;;8.32;3.65;;;-4.40;99.90;;;;;;4983750;28;20076;-95
2024/01/09 08:28:11;;;;;;;9.70;3.85;;;-4.30;99.90;;;;;;4994147;28;20399;-92
2024/01/09 08:30:36;;;;;;;8.73;3.47;;;-4.30;99.90;;;;;;4986229;28;20517;-92
2024/01/09 08:33:06;;;;;;;8.38;3.60;;;-4.30;99.90;;;;;;4994012;28;20029;-93
2024/01/09 08:35:31;;;;;;;8.38;3.97;;;-3.80;99.90;;;;;;5009828;28;20046;-93
2024/01/09 08:37:57;;;;;;;10.68;4.10;;;-4.10;99.90;;;;;;4992770;28;20195;-92
2024/01/09 08:40:25;;;;;;;8.43;3.30;;;-4.10;99.90;;;;;;5009216;28;20557;-90
2024/01/09 08:42:51;;;;;;;9.65;3.80;;;-4.10;99.90;;;;;;4991149;28;20044;-92
2024/01/09 08:45:18;;;;;;;7.82;3.58;;;-4.10;99.90;;;;;;4990502;28;20041;-91
2024/01/09 08:47:44;;;;;;;9.05;3.55;;;;;;;;;;5010034;28;20107;-92
2024/01/09 08:50:10;;;;;;;9.20;3.63;;;-3.80;99.90;;;;;;5007904;28;20343;-92
2024/01/09 08:52:36;;;;;;;9.73;3.58;;;;;;;;;;5009781;28;20048;-93
2024/01/09 08:55:03;;;;;;;8.98;3.65;;;-3.70;99.90;;;;;;5010353;28;20052;-92
2024/01/09 08:57:29;;;;;;;8.73;3.63;;;;;;;;;;5008020;28;20127;-92
2024/01/09 08:59:57;;;;;;;9.48;3.67;;;-3.50;99.90;;;;;;5025537;28;20045;-94
2024/01/09 09:02:23;;;;;;;8.00;3.75;;;-3.60;99.90;;;;;;4992568;28;20128;-92
2024/01/09 09:04:50;;;;;;;8.90;3.65;;;;;;;;;;4993622;28;20126;-93
2024/01/09 09:07:17;;;;;;;8.30;3.53;;;-3.50;99.90;;;;;;5008433;28;20128;-91
2024/01/09 09:09:42;;;;;;;8.50;3.50;;;-1.20;99.90;;;;;;5009871;28;20411;-92
2024/01/09 09:12:08;;;;;;;8.82;3.60;;;-3.30;99.90;;;;;;5008819;28;20040;-91
2024/01/09 09:14:37;;;;;;;8.05;3.20;;;-3.20;99.90;;;;;;4992049;28;20033;-91
2024/01/09 09:17:03;;;;;;;8.38;3.53;;;;;;;;;;4978143;28;20038;-93
2024/01/09 09:19:31;;;;;;;8.75;3.40;;;-2.90;99.90;;;;;;4991049;28;20046;-92
2024/01/09 09:21:58;;;;;;;7.57;3.35;;;-3.40;99.90;;;;;;4988300;28;20475;-93
2024/01/09 09:24:23;;;;;;;8.55;3.15;;;-3.20;99.90;;;;;;5007357;28;20264;-92
2024/01/09 09:26:49;;;;;;;8.50;3.28;;;;;;;;;;4991126;28;20615;-90
2024/01/09 09:29:15;;;;;;;8.27;3.30;;;-3.00;99.90;;;;;;5008537;28;20040;-90
2024/01/09 09:31:41;;;;;;;7.57;2.90;;;-3.00;99.90;;;;;;5009725;28;20046;-91
2024/01/09 09:34:07;;;;;;;8.32;3.25;;;-2.50;99.90;;;;;;5025480;28;20416;-93
2024/01/09 09:36:33;;;;;;;8.45;3.25;;;-2.90;99.90;;;;;;5007952;28;20414;-90
2024/01/09 09:38:59;;;;;;;7.20;2.88;;;-3.40;99.90;;;;;;5009387;28;20029;-91
2024/01/09 09:41:25;;;;;;;8.50;3.35;;;-3.50;99.90;;;;;;5008460;28;20502;-91
2024/01/09 09:43:56;;;;;;;7.90;3.20;;;-2.80;99.90;;;;;;5009572;28;20184;-94
2024/01/09 09:46:25;;;;;;;8.10;3.35;;;;;;;;;;5009138;28;20038;-91
2024/01/09 09:48:53;;;;;;;8.23;3.50;;;-2.70;99.90;;;;;;5009567;28;20183;-93
2024/01/09 09:51:23;;;;;;;9.82;3.58;;;;;;;;;;5025588;28;20112;-93
2024/01/09 09:53:50;;;;;;;7.55;3.00;;;-2.60;99.90;;;;;;4990057;28;20046;-91
2024/01/09 09:56:17;;;;;;;8.27;3.10;;;-2.10;99.90;;;;;;4990416;28;20112;-94
2024/01/09 09:58:45;;;;;;;8.38;3.30;;;-2.60;99.90;;;;;;5004362;28;20041;-90
2024/01/09 10:01:12;;;;;;;7.63;2.83;;;-2.50;99.90;;;;;;5007601;28;20475;-94
2024/01/09 10:03:54;;;;;;;6.78;2.67;;;-2.40;99.90;;;;;;4992080;28;20045;-92
2024/01/09 10:06:21;;;;;;;7.95;3.00;;;-2.40;99.90;;;;;;5004721;28;20084;-92
2024/01/09 10:08:50;;;;;;;8.48;3.28;;;-2.30;99.90;;;;;;5007403;28;20080;-93
2024/01/09 10:11:17;;;;;;;7.85;2.85;;;-2.30;99.90;;;;;;4993677;28;20041;-94
2024/01/09 10:13:43;;;;;;;6.93;2.50;;;-2.90;99.90;;;;;;5013147;28;20056;-93
2024/01/09 10:16:10;;;;;;;7.63;3.00;;;-2.20;99.90;;;;;;5011172;28;20067;-94
2024/01/09 10:18:37;;;;;;;9.13;3.20;;;-2.30;99.90;;;;;;4981289;28;20037;-94
2024/01/09 10:21:03;;;;;;;7.38;2.85;;;-2.20;99.90;;;;;;5010596;28;20053;-95
2024/01/09 10:23:35;;;;;;;6.55;2.80;;;-2.10;99.90;;;;;;5007117;28;20100;-94
2024/01/09 10:26:04;;;;;;;6.87;2.70;;;;;;;;;;4991475;28;20045;-94
2024/01/09 10:28:30;;;;;;;7.35;2.72;;;-2.00;99.90;;;;;;5011025;28;20294;-94
2024/01/09 10:31:06;;;;;;;7.00;2.80;;;;;;;;;;5003987;28;20038;-95
2024/01/09 10:33:32;;;;;;;7.43;2.70;;;-2.00;99.90;;;;;;5006020;28;20441;-92
2024/01/09 10:35:59;;;;;;;7.50;2.70;;;-2.00;99.90;;;;;;4989950;28;20140;-96
2024/01/09 10:38:25;;;;;;;7.00;2.45;;;-1.90;99.90;;;;;;5002652;28;20068;-94
2024/01/09 10:40:56;;;;;;;8.02;2.92;;;-1.80;99.90;;;;;;5012664;28;20049;-93
2024/01/09 10:43:25;;;;;;;7.20;2.80;;;-1.80;99.90;;;;;;5010329;28;20037;-92
2024/01/09 10:45:53;;;;;;;8.07;2.85;;;-1.90;99.90;;;;;;4993721;28;20048;-93
2024/01/09 10:48:24;;;;;;;6.90;2.80;;;-1.80;99.90;;;;;;5013296;28;20041;-91
2024/01/09 10:50:51;;;;;;;7.05;2.80;;;-1.80;99.90;;;;;;5012192;28;20046;-90
2024/01/09 10:53:20;;;;;;;7.43;2.55;;;-1.80;99.90;;;;;;5016913;28;20676;-95
2024/01/09 10:55:47;;;;;;;9.00;3.70;;;;;;;;;;4988541;28;20042;-96
2024/01/09 10:58:14;;;;;;;8.85;2.83;;;;;;;;;;5002887;28;20100;-93
2024/01/09 11:00:40;;;;;;;7.25;2.95;;;-1.60;99.90;;;;;;5004736;28;20049;-94
2024/01/09 11:03:06;;;;;;;6.68;2.53;;;-1.60;99.90;;;;;;4992089;28;20041;-92
2024/01/09 11:05:32;;;;;;;6.95;2.78;;;-1.50;99.90;;;;;;4992673;28;20045;-92
2024/01/09 11:08:20;;;;;;;7.32;2.90;;;-1.40;99.90;;;;;;4991044;28;20061;-91
2024/01/09 11:10:47;;;;;;;6.82;2.65;;;-1.40;99.90;;;;;;4989126;28;20042;-94
2024/01/09 11:13:15;;;;;;;5.80;2.47;;;-1.40;99.90;;;;;;4986438;28;20057;-91
2024/01/09 11:15:46;;;;;;;7.70;2.70;;;-1.40;99.90;;;;;;5024879;28;20603;-93
2024/01/09 11:18:16;;;;;;;7.28;2.53;;;-1.30;99.90;;;;;;5006038;28;20054;-92
2024/01/09 11:20:43;;;;;;;9.43;2.80;;;-1.20;99.90;;;;;;5007758;28;20510;-94
2024/01/09 11:23:12;;;;;;;7.22;2.78;;;-1.20;99.90;;;;;;5006092;28;20047;-94
2024/01/09 11:25:40;;;;;;;5.82;2.40;;;-0.90;99.90;;;;;;5009031;28;20041;-94
2024/01/09 11:28:09;;;;;;;6.60;2.50;;;-1.30;99.90;;;;;;5008401;28;20391;-95
2024/01/09 11:30:35;;;;;;;7.60;3.15;;;-1.20;99.90;;;;;;4990698;28;20041;-93
2024/01/09 11:33:26;;;;;;;7.93;2.90;;;-1.10;99.90;;;;;;5013100;28;20048;-94
2024/01/09 11:35:52;;;;;;;7.38;2.70;;;;;;;;;;5010287;28;20437;-95
2024/01/09 11:38:18;;;;;;;6.97;2.65;;;-1.10;99.90;;;;;;4991988;28;20510;-94
2024/01/09 11:40:44;;;;;;;7.50;3.20;;;-1.10;99.90;;;;;;5009936;28;20045;-94
2024/01/09 11:43:10;;;;;;;7.72;2.83;;;-1.10;99.90;;;;;;5012368;28;20052;-96
2024/01/09 11:45:36;;;;;;;6.45;2.60;;;-1.00;99.90;;;;;;4996945;28;20034;-95
2024/01/09 11:48:02;;;;;;;7.55;3.03;;;-1.00;99.90;;;;;;4994647;28;20034;-94
2024/01/09 11:50:31;;;;;;;7.35;2.67;;;-0.90;99.90;;;;;;4993932;28;20041;-95
2024/01/09 11:52:58;;;;;;;7.10;2.63;;;-1.00;99.90;;;;;;5009178;28;20034;-94
2024/01/09 11:55:24;;;;;;;6.43;2.88;;;-0.90;99.90;;;;;;4996241;28;20037;-96
2024/01/09 11:57:52;;;;;;;7.05;2.80;;;-0.90;99.90;;;;;;4993860;28;20041;-94
2024/01/09 12:00:18;;;;;;;7.88;2.80;;;-0.80;99.90;;;;;;5011563;28;20064;-95
2024/01/09 12:02:43;;;;;;;6.75;2.60;;;-0.80;99.90;;;;;;4994541;28;20073;-96
2024/01/09 12:05:09;;;;;;;7.60;2.60;;;-0.80;99.90;;;;;;5009252;28;20042;-94
2024/01/09 12:07:39;;;;;;;7.10;2.67;;;-0.80;99.90;;;;;;5009458;28;20392;-96
2024/01/09 12:10:06;;;;;;;7.25;2.78;;;-0.70;99.90;;;;;;5009675;28;20026;-94
2024/01/09 12:12:35;;;;;;;7.50;2.78;;;-0.70;99.90;;;;;;5006571;28;20473;-96
2024/01/09 12:15:09;;;;;;;6.28;2.50;;;-0.60;99.90;;;;;;4992721;28;20043;-96
2024/01/09 12:17:37;;;;;;;7.72;2.85;;;-0.50;99.90;;;;;;4986971;28;20465;-95
2024/01/09 12:20:10;;;;;;;7.72;2.85;;;-0.50;99.90;;;;;;5007016;28;20038;-95
2024/01/09 12:22:36;;;;;;;;;;;-0.50;99.90;;;;;;5009451;28;20079;-93
2024/01/09 12:25:05;;;;;;;7.97;2.55;;;-0.50;99.90;;;;;;5006936;28;19917;-92
2024/01/09 12:27:31;;;;;;;6.80;2.72;;;-0.50;99.90;;;;;;5005618;28;20034;-93
2024/01/09 12:29:58;;;;;;;6.88;2.65;;;;;;;;;;4991649;28;20068;-95
2024/01/09 12:32:24;;;;;;;6.43;2.50;;;-0.50;99.90;;;;;;5009383;28;20111;-93
2024/01/09 12:34:50;;;;;;;6.85;2.90;;;-0.40;99.90;;;;;;5010576;28;20057;-95
2024/01/09 12:37:17;;;;;;;7.00;2.40;;;;;;;;;;4978257;28;20399;-94
2024/01/09 12:39:44;;;;;;;7.85;2.53;;;;;;;;;;5009430;28;20038;-93
2024/01/09 12:42:13;;;;;;;6.90;2.63;;;-0.40;99.90;;;;;;5008484;28;20052;-94
2024/01/09 12:44:41;;;;;;;6.65;2.63;;;-0.30;99.90;;;;;;5036067;28;20359;-92
2024/01/09 12:47:15;;;;;;;6.82;2.42;;;-0.30;99.90;;;;;;5009251;28;20165;-93
2024/01/09 12:49:48;;;;;;;7.03;2.50;;;-0.30;99.90;;;;;;5009487;28;20148;-93
2024/01/09 12:52:14;;;;;;;;;;;-0.30;99.90;;;;;;5010201;28;20696;-94